Time;durP1;ratioP1;P1;durP2;ratioP2;P2;SDS_P1;SDS_P2;PMS_P1;PMS_P2;Temp;Humidity;BMP_temperature;BMP_pressure;BME280_temperature;BME280_humidity;BME280_pressure;Samples;Min_cycle;Max_cycle;Signal;HPM_P1;HPM_P2
2022/05/09 00:02:20;;;;;;;5.97;1.42;;;;;;;;;;5018581;28;20460;-57
2022/05/09 00:04:46;;;;;;;2.00;1.10;;;;;;;;;;5021299;28;20033;-58
2022/05/09 00:07:12;;;;;;;3.17;1.30;;;;;;;;;;5026283;28;20029;-58
2022/05/09 00:09:37;;;;;;;3.03;1.30;;;;;;;;;;5023882;28;20076;-58
2022/05/09 00:12:03;;;;;;;3.30;1.20;;;;;;;;;;5026669;28;20385;-58
2022/05/09 00:14:29;;;;;;;2.80;1.40;;;;;;;;;;5025322;28;20038;-58
2022/05/09 00:16:55;;;;;;;3.83;1.50;;;;;;;;;;5022684;28;20025;-58
2022/05/09 00:19:21;;;;;;;3.97;1.50;;;;;;;;;;5018534;28;20029;-58
2022/05/09 00:21:49;;;;;;;3.28;1.60;;;;;;;;;;5015334;28;20599;-57
2022/05/09 00:24:17;;;;;;;2.13;1.45;;;;;;;;;;5030246;28;20033;-58
2022/05/09 00:26:44;;;;;;;6.63;1.73;;;;;;;;;;5024749;28;20120;-58
2022/05/09 00:29:11;;;;;;;2.08;1.60;;;;;;;;;;5023979;28;20033;-58
2022/05/09 00:31:39;;;;;;;3.50;1.50;;;;;;;;;;5023998;28;20021;-58
2022/05/09 00:34:05;;;;;;;4.53;1.48;;;;;;;;;;5022760;28;20065;-57
2022/05/09 00:36:32;;;;;;;3.00;1.50;;;;;;;;;;5026696;28;20112;-57
2022/05/09 00:39:01;;;;;;;2.95;1.60;;;;;;;;;;5018675;28;20044;-58
2022/05/09 00:41:37;;;;;;;5.28;1.90;;;;;;;;;;5027090;28;20029;-58
2022/05/09 00:44:39;;;;;;;6.50;1.90;;;;;;;;;;5026347;28;20033;-58
2022/05/09 00:47:05;;;;;;;2.42;1.42;;;;;;;;;;5016633;28;20133;-58
2022/05/09 00:49:35;;;;;;;4.80;1.63;;;;;;;;;;5023127;28;20123;-58
2022/05/09 00:52:20;;;;;;;3.83;1.65;;;;;;;;;;5017457;28;20029;-58
2022/05/09 00:54:54;;;;;;;4.55;1.92;;;;;;;;;;5022245;28;20112;-57
2022/05/09 00:57:53;;;;;;;5.10;1.90;;;;;;;;;;5021050;28;20037;-57
2022/05/09 01:00:21;;;;;;;3.13;1.55;;;;;;;;;;5022099;28;20287;-57
2022/05/09 01:02:55;;;;;;;2.38;1.70;;;;;;;;;;5021411;28;20045;-57
2022/05/09 01:05:20;;;;;;;6.03;1.90;;;;;;;;;;5022592;28;20045;-57
2022/05/09 01:07:46;;;;;;;9.02;1.95;;;;;;;;;;5022005;28;20619;-58
2022/05/09 01:10:15;;;;;;;3.38;2.10;;;;;;;;;;5019075;28;20045;-57
2022/05/09 01:12:43;;;;;;;4.60;1.60;;;;;;;;;;5023315;28;20094;-57
2022/05/09 01:15:14;;;;;;;2.78;2.00;;;;;;;;;;5021977;28;20555;-57
2022/05/09 01:17:40;;;;;;;3.80;1.88;;;;;;;;;;5041021;28;20029;-57
2022/05/09 01:20:10;;;;;;;6.22;1.98;;;;;;;;;;5023106;28;20029;-57
2022/05/09 01:22:38;;;;;;;2.95;1.85;;;;;;;;;;5017828;28;20382;-58
2022/05/09 01:25:07;;;;;;;6.15;1.55;;;;;;;;;;5023584;28;20495;-58
2022/05/09 01:27:38;;;;;;;3.67;1.60;;;;;;;;;;5025924;28;20534;-57
2022/05/09 01:30:03;;;;;;;5.05;1.60;;;;;;;;;;5016899;28;20033;-57
2022/05/09 01:32:45;;;;;;;2.58;1.45;;;;;;;;;;5029712;28;20577;-57
2022/05/09 01:35:15;;;;;;;3.70;1.33;;;;;;;;;;5019619;28;20560;-57
2022/05/09 01:37:45;;;;;;;5.78;1.67;;;;;;;;;;5016348;28;20113;-57
2022/05/09 01:40:11;;;;;;;5.65;1.63;;;;;;;;;;5022139;28;20032;-57
2022/05/09 01:42:42;;;;;;;4.78;1.73;;;;;;;;;;5026136;28;20040;-58
2022/05/09 01:45:11;;;;;;;7.20;2.58;;;;;;;;;;5016244;28;20033;-57
2022/05/09 01:50:21;;;;;;;7.68;3.70;;;;;;;;;;5024127;28;20091;-58
2022/05/09 01:52:46;;;;;;;10.25;3.08;;;;;;;;;;5019759;28;20524;-57
2022/05/09 01:55:12;;;;;;;11.35;3.33;;;;;;;;;;5019868;28;20086;-57
2022/05/09 01:57:38;;;;;;;8.43;3.35;;;;;;;;;;5019745;28;20047;-58
2022/05/09 02:00:08;;;;;;;10.20;4.05;;;;;;;;;;5021511;28;20137;-58
2022/05/09 02:02:34;;;;;;;15.85;4.70;;;;;;;;;;5016959;28;20069;-58
2022/05/09 02:05:00;;;;;;;13.02;4.47;;;;;;;;;;5025099;28;20037;-58
2022/05/09 02:07:26;;;;;;;8.90;4.63;;;;;;;;;;5020293;28;20514;-57
2022/05/09 02:09:52;;;;;;;12.30;4.53;;;;;;;;;;5024046;28;20088;-57
2022/05/09 02:12:19;;;;;;;10.25;4.60;;;;;;;;;;5021068;28;20036;-57
2022/05/09 02:14:46;;;;;;;7.53;4.28;;;;;;;;;;5018340;28;20114;-57
2022/05/09 02:17:13;;;;;;;15.23;4.80;;;;;;;;;;5019187;28;20108;-57
2022/05/09 02:19:40;;;;;;;8.38;4.70;;;;;;;;;;5020575;28;20759;-57
2022/05/09 02:22:08;;;;;;;12.00;4.72;;;;;;;;;;5025508;28;20033;-57
2022/05/09 02:24:33;;;;;;;8.43;4.88;;;;;;;;;;5026149;28;20124;-57
2022/05/09 02:27:00;;;;;;;9.15;4.95;;;;;;;;;;5022089;28;20047;-57
2022/05/09 02:29:25;;;;;;;11.07;5.43;;;;;;;;;;5024594;28;20038;-57
2022/05/09 02:31:51;;;;;;;11.10;5.30;;;;;;;;;;5004700;28;20021;-57
2022/05/09 02:34:17;;;;;;;9.82;4.78;;;;;;;;;;5022069;28;20022;-58
2022/05/09 02:36:42;;;;;;;8.65;4.63;;;;;;;;;;5022907;28;20067;-57
2022/05/09 02:39:08;;;;;;;9.98;5.30;;;;;;;;;;5025705;28;20032;-57
2022/05/09 02:41:34;;;;;;;13.32;5.47;;;;;;;;;;5027804;28;20037;-57
2022/05/09 02:44:00;;;;;;;13.77;4.88;;;;;;;;;;5024694;28;20400;-58
2022/05/09 02:46:26;;;;;;;13.50;5.65;;;;;;;;;;5023439;28;20077;-58
2022/05/09 02:48:51;;;;;;;12.13;5.72;;;;;;;;;;5028377;28;20039;-58
2022/05/09 02:51:17;;;;;;;13.55;5.43;;;;;;;;;;5022013;28;20033;-58
2022/05/09 02:53:43;;;;;;;11.60;4.38;;;;;;;;;;5023283;28;20045;-58
2022/05/09 02:56:08;;;;;;;11.43;4.95;;;;;;;;;;5020113;28;20072;-58
2022/05/09 02:58:35;;;;;;;14.68;5.03;;;;;;;;;;5026445;28;20033;-58
2022/05/09 03:01:00;;;;;;;13.15;4.63;;;;;;;;;;5023328;28;20072;-58
2022/05/09 03:06:10;;;;;;;10.75;4.60;;;;;;;;;;5026853;28;20099;-58
2022/05/09 03:08:36;;;;;;;12.70;4.38;;;;;;;;;;5020232;28;20025;-58
2022/05/09 03:11:01;;;;;;;12.00;4.22;;;;;;;;;;5024153;28;20029;-58
2022/05/09 03:13:27;;;;;;;13.43;4.82;;;;;;;;;;5022082;28;20038;-58
2022/05/09 03:15:53;;;;;;;9.95;3.90;;;;;;;;;;5026694;28;20108;-58
2022/05/09 03:18:23;;;;;;;8.82;4.10;;;;;;;;;;5022617;28;20028;-58
2022/05/09 03:20:49;;;;;;;12.07;4.22;;;;;;;;;;5024585;28;20496;-58
2022/05/09 03:23:15;;;;;;;8.95;3.67;;;;;;;;;;5021256;28;20254;-58
2022/05/09 03:25:41;;;;;;;13.70;3.83;;;;;;;;;;5026174;28;20120;-58
2022/05/09 03:28:13;;;;;;;8.05;3.53;;;;;;;;;;5025138;28;20043;-58
2022/05/09 03:30:39;;;;;;;11.38;3.83;;;;;;;;;;5023541;28;20038;-58
2022/05/09 03:33:06;;;;;;;9.90;3.55;;;;;;;;;;5029791;28;20110;-58
2022/05/09 03:35:32;;;;;;;9.05;3.58;;;;;;;;;;5027431;28;20480;-58
2022/05/09 03:37:58;;;;;;;7.93;3.03;;;;;;;;;;5021979;28;20102;-58
2022/05/09 03:40:23;;;;;;;8.98;3.63;;;;;;;;;;5026851;28;20067;-57
2022/05/09 03:42:49;;;;;;;10.25;3.75;;;;;;;;;;5025951;28;20040;-58
2022/05/09 03:45:16;;;;;;;9.32;3.35;;;;;;;;;;5021762;28;20036;-58
2022/05/09 03:47:42;;;;;;;13.48;3.90;;;;;;;;;;5023574;28;20046;-58
2022/05/09 03:50:09;;;;;;;10.65;3.72;;;;;;;;;;5025357;28;20099;-58
2022/05/09 03:52:35;;;;;;;11.13;3.28;;;;;;;;;;5027420;28;20041;-58
2022/05/09 03:55:01;;;;;;;12.43;3.35;;;;;;;;;;5025827;28;20022;-58
2022/05/09 03:57:27;;;;;;;9.05;3.13;;;;;;;;;;5018929;28;20040;-58
2022/05/09 03:59:53;;;;;;;14.18;3.75;;;;;;;;;;5024096;28;20353;-58
2022/05/09 04:02:18;;;;;;;7.20;3.17;;;;;;;;;;5013831;28;20765;-58
2022/05/09 04:04:44;;;;;;;10.05;3.25;;;;;;;;;;5016618;28;20037;-58
2022/05/09 04:07:09;;;;;;;10.35;3.67;;;;;;;;;;5024550;28;20059;-58
2022/05/09 04:09:36;;;;;;;9.45;3.33;;;;;;;;;;5020432;28;20025;-58
2022/05/09 04:12:02;;;;;;;9.98;3.40;;;;;;;;;;5024920;28;20025;-58
2022/05/09 04:17:14;;;;;;;11.55;2.88;;;;;;;;;;5020499;28;20044;-58
2022/05/09 04:19:39;;;;;;;7.68;2.97;;;;;;;;;;5021077;28;20032;-58
2022/05/09 04:22:06;;;;;;;10.27;3.42;;;;;;;;;;5023383;28;20025;-58
2022/05/09 04:24:32;;;;;;;6.70;2.78;;;;;;;;;;5027096;28;20108;-58
2022/05/09 04:26:58;;;;;;;13.80;3.20;;;;;;;;;;5025332;28;20113;-58
2022/05/09 04:29:25;;;;;;;10.93;3.47;;;;;;;;;;5018979;28;20033;-58
2022/05/09 04:31:50;;;;;;;7.00;3.10;;;;;;;;;;5028498;28;20076;-57
2022/05/09 04:34:16;;;;;;;11.25;3.05;;;;;;;;;;5024912;28;20440;-58
2022/05/09 04:36:41;;;;;;;9.98;2.85;;;;;;;;;;5027600;28;20536;-58
2022/05/09 04:39:07;;;;;;;14.30;4.20;;;;;;;;;;5027746;28;20030;-57
2022/05/09 04:41:33;;;;;;;4.72;2.40;;;;;;;;;;5021770;28;20118;-58
2022/05/09 04:43:59;;;;;;;6.68;3.17;;;;;;;;;;5024624;28;20180;-57
2022/05/09 04:46:25;;;;;;;6.20;2.80;;;;;;;;;;5020304;28;20057;-57
2022/05/09 04:48:51;;;;;;;8.48;2.80;;;;;;;;;;5027228;28;20025;-57
2022/05/09 04:51:17;;;;;;;6.65;2.88;;;;;;;;;;5019066;28;20091;-57
2022/05/09 04:53:43;;;;;;;13.57;2.80;;;;;;;;;;5027947;28;20479;-58
2022/05/09 04:56:10;;;;;;;6.63;2.65;;;;;;;;;;5022343;28;20057;-57
2022/05/09 04:58:35;;;;;;;11.38;3.50;;;;;;;;;;5021867;28;20120;-57
2022/05/09 05:01:01;;;;;;;7.45;3.28;;;;;;;;;;5019672;28;20436;-57
2022/05/09 05:03:26;;;;;;;10.20;3.60;;;;;;;;;;5025006;28;20021;-57
2022/05/09 05:05:53;;;;;;;5.10;2.67;;;;;;;;;;5022966;28;20145;-61
2022/05/09 05:08:20;;;;;;;9.77;3.55;;;;;;;;;;5024411;28;20041;-57
2022/05/09 05:10:52;;;;;;;9.82;3.38;;;;;;;;;;5021330;28;20032;-57
2022/05/09 05:13:19;;;;;;;9.65;3.92;;;;;;;;;;5018181;28;20551;-56
2022/05/09 05:15:44;;;;;;;8.85;3.65;;;;;;;;;;5017054;28;20066;-57
2022/05/09 05:18:11;;;;;;;7.10;3.13;;;;;;;;;;5018662;28;20056;-57
2022/05/09 05:20:37;;;;;;;8.35;3.50;;;;;;;;;;5020402;28;20068;-56
2022/05/09 05:23:02;;;;;;;11.50;3.38;;;;;;;;;;5022323;28;20059;-57
2022/05/09 05:25:30;;;;;;;14.20;4.00;;;;;;;;;;5023913;28;20033;-57
2022/05/09 05:27:56;;;;;;;13.23;4.05;;;;;;;;;;5023579;28;20570;-57
2022/05/09 05:30:22;;;;;;;8.90;4.28;;;;;;;;;;5019032;28;20435;-57
2022/05/09 05:32:48;;;;;;;7.65;3.65;;;;;;;;;;5023509;28;20042;-56
2022/05/09 05:35:19;;;;;;;10.35;3.50;;;;;;;;;;5019682;28;20029;-57
2022/05/09 05:37:45;;;;;;;9.80;4.45;;;;;;;;;;5022557;28;20025;-56
2022/05/09 05:40:12;;;;;;;12.65;4.78;;;;;;;;;;5024807;28;20423;-57
2022/05/09 05:42:40;;;;;;;7.70;4.55;;;;;;;;;;5021118;28;20040;-56
2022/05/09 05:45:06;;;;;;;7.05;3.78;;;;;;;;;;5022501;28;20025;-57
2022/05/09 05:47:32;;;;;;;9.27;4.20;;;;;;;;;;5025105;28;20111;-58
2022/05/09 05:49:57;;;;;;;8.35;4.10;;;;;;;;;;5012987;28;20037;-57
2022/05/09 05:52:23;;;;;;;14.65;4.70;;;;;;;;;;5022725;28;20120;-56
2022/05/09 05:54:49;;;;;;;11.30;4.40;;;;;;;;;;5019910;28;20489;-56
2022/05/09 05:57:26;;;;;;;15.00;4.75;;;;;;;;;;5021423;28;20503;-57
2022/05/09 05:59:56;;;;;;;15.00;4.85;;;;;;;;;;5019107;28;20067;-57
2022/05/09 06:02:23;;;;;;;11.73;5.25;;;;;;;;;;5017541;28;20044;-57
2022/05/09 06:04:49;;;;;;;10.38;4.75;;;;;;;;;;5028009;28;20033;-57
2022/05/09 06:07:15;;;;;;;12.93;4.47;;;;;;;;;;5022126;28;20036;-57
2022/05/09 06:09:42;;;;;;;17.50;4.93;;;;;;;;;;5020553;28;20508;-57
2022/05/09 06:12:08;;;;;;;8.93;4.90;;;;;;;;;;5027281;28;20029;-57
2022/05/09 06:14:35;;;;;;;10.65;4.30;;;;;;;;;;5024998;28;20039;-57
2022/05/09 06:17:02;;;;;;;10.77;5.22;;;;;;;;;;5028038;28;20025;-57
2022/05/09 06:19:27;;;;;;;25.05;4.28;;;;;;;;;;5021357;28;20120;-57
2022/05/09 06:21:53;;;;;;;11.63;4.68;;;;;;;;;;5025901;28;20136;-56
2022/05/09 06:24:18;;;;;;;12.40;4.10;;;;;;;;;;5020685;28;20096;-57
2022/05/09 06:26:45;;;;;;;12.00;4.72;;;;;;;;;;5022315;28;20029;-58
2022/05/09 06:29:11;;;;;;;16.40;4.10;;;;;;;;;;5022930;28;20052;-57
2022/05/09 06:31:40;;;;;;;15.93;4.60;;;;;;;;;;5024870;28;20107;-57
2022/05/09 06:34:08;;;;;;;13.93;3.70;;;;;;;;;;5021793;28;20033;-58
2022/05/09 06:36:40;;;;;;;14.52;4.68;;;;;;;;;;5018194;28;20037;-56
2022/05/09 06:39:08;;;;;;;10.60;4.75;;;;;;;;;;5020505;28;20234;-56
2022/05/09 06:41:34;;;;;;;17.73;5.07;;;;;;;;;;5021013;28;20038;-56
2022/05/09 06:43:59;;;;;;;12.90;4.78;;;;;;;;;;5018558;28;20033;-56
2022/05/09 06:46:26;;;;;;;19.77;4.88;;;;;;;;;;5021605;28;20638;-57
2022/05/09 06:48:52;;;;;;;12.55;4.43;;;;;;;;;;5019778;28;20156;-56
2022/05/09 06:51:18;;;;;;;12.55;4.70;;;;;;;;;;5019366;28;20120;-56
2022/05/09 06:53:44;;;;;;;11.25;4.75;;;;;;;;;;5022388;28;20167;-56
2022/05/09 06:56:10;;;;;;;11.02;4.57;;;;;;;;;;5022628;28;20493;-56
2022/05/09 06:58:36;;;;;;;15.48;4.50;;;;;;;;;;5020016;28;20428;-56
2022/05/09 07:01:13;;;;;;;14.23;4.80;;;;;;;;;;5024510;28;20022;-55
2022/05/09 07:03:38;;;;;;;13.40;4.35;;;;;;;;;;5014133;28;20037;-55
2022/05/09 07:06:04;;;;;;;7.95;4.43;;;;;;;;;;5021206;28;20043;-55
2022/05/09 07:08:32;;;;;;;12.65;4.70;;;;;;;;;;5025933;28;20030;-56
2022/05/09 07:10:58;;;;;;;6.95;4.07;;;;;;;;;;5030322;28;20033;-56
2022/05/09 07:13:24;;;;;;;12.13;4.35;;;;;;;;;;5025279;28;22801;-56
2022/05/09 07:15:49;;;;;;;9.90;4.60;;;;;;;;;;5026991;28;20416;-56
2022/05/09 07:18:15;;;;;;;17.83;4.07;;;;;;;;;;5027069;28;20544;-55
2022/05/09 07:20:40;;;;;;;12.27;4.50;;;;;;;;;;5024797;28;20037;-56
2022/05/09 07:23:11;;;;;;;10.80;4.00;;;;;;;;;;5019431;28;20029;-56
2022/05/09 07:25:38;;;;;;;12.80;4.30;;;;;;;;;;5023785;28;20044;-56
2022/05/09 07:28:05;;;;;;;10.75;3.72;;;;;;;;;;5026134;28;20040;-55
2022/05/09 07:30:31;;;;;;;10.10;4.68;;;;;;;;;;5024974;28;20056;-56
2022/05/09 07:32:57;;;;;;;9.20;4.22;;;;;;;;;;5028831;28;20080;-57
2022/05/09 07:35:23;;;;;;;15.35;4.32;;;;;;;;;;5028288;28;20037;-56
2022/05/09 07:37:49;;;;;;;12.13;4.28;;;;;;;;;;5030236;28;20025;-56
2022/05/09 07:40:20;;;;;;;9.98;4.15;;;;;;;;;;5028835;28;20051;-56
2022/05/09 07:42:47;;;;;;;10.40;4.32;;;;;;;;;;5025513;28;20510;-56
2022/05/09 07:45:17;;;;;;;10.48;4.38;;;;;;;;;;5024507;28;20064;-56
2022/05/09 07:47:42;;;;;;;8.48;3.85;;;;;;;;;;5027752;28;20065;-56
2022/05/09 07:50:10;;;;;;;5.43;3.30;;;;;;;;;;5020600;28;20025;-57
2022/05/09 07:52:36;;;;;;;6.53;3.55;;;;;;;;;;5027855;28;20492;-57
2022/05/09 07:55:03;;;;;;;6.53;3.53;;;;;;;;;;5024562;28;20056;-56
2022/05/09 07:57:29;;;;;;;8.85;3.53;;;;;;;;;;5027968;28;20027;-56
2022/05/09 07:59:54;;;;;;;6.50;3.22;;;;;;;;;;5023765;28;20045;-56
2022/05/09 08:02:20;;;;;;;3.88;2.90;;;;;;;;;;5023939;28;20117;-57
2022/05/09 08:04:45;;;;;;;11.23;3.00;;;;;;;;;;5028132;28;20407;-57
2022/05/09 08:07:13;;;;;;;9.30;2.92;;;;;;;;;;5026143;28;20477;-57
2022/05/09 08:09:39;;;;;;;3.90;2.80;;;;;;;;;;5024625;28;20435;-57
2022/05/09 08:12:05;;;;;;;7.15;2.70;;;;;;;;;;5025708;28;20037;-55
2022/05/09 08:14:30;;;;;;;4.10;2.72;;;;;;;;;;5019294;28;20033;-57
2022/05/09 08:16:56;;;;;;;11.10;3.25;;;;;;;;;;5026031;28;20036;-56
2022/05/09 08:19:22;;;;;;;7.30;2.60;;;;;;;;;;5020629;28;20502;-56
2022/05/09 08:21:50;;;;;;;7.45;3.08;;;;;;;;;;5026316;28;20129;-57
2022/05/09 08:24:17;;;;;;;6.72;3.10;;;;;;;;;;5021437;28;20079;-57
2022/05/09 08:26:43;;;;;;;4.97;2.83;;;;;;;;;;5023506;28;20461;-58
2022/05/09 08:29:09;;;;;;;7.40;2.72;;;;;;;;;;5024524;28;20053;-56
2022/05/09 08:31:35;;;;;;;5.40;2.65;;;;;;;;;;5026450;28;20464;-57
2022/05/09 08:34:00;;;;;;;6.25;2.65;;;;;;;;;;5025012;28;20040;-57
2022/05/09 08:39:10;;;;;;;8.27;2.50;;;;;;;;;;5024876;28;20101;-55
2022/05/09 08:41:55;;;;;;;9.45;3.20;;;;;;;;;;5024349;28;20030;-57
2022/05/09 08:44:42;;;;;;;5.47;2.95;;;;;;;;;;5018665;28;20034;-56
2022/05/09 08:47:10;;;;;;;10.30;2.78;;;;;;;;;;5023799;28;20049;-57
2022/05/09 08:49:47;;;;;;;5.55;2.67;;;;;;;;;;5023057;28;20152;-56
2022/05/09 08:52:29;;;;;;;6.45;2.85;;;;;;;;;;5020761;28;20498;-58
2022/05/09 08:54:55;;;;;;;8.82;3.20;;;;;;;;;;5019505;28;20033;-57
2022/05/09 08:57:25;;;;;;;11.48;3.20;;;;;;;;;;5027523;28;20042;-57
2022/05/09 09:00:03;;;;;;;8.13;3.33;;;;;;;;;;5023863;28;20037;-57
2022/05/09 09:02:40;;;;;;;9.07;3.17;;;;;;;;;;5024895;28;20536;-57
2022/05/09 09:05:11;;;;;;;4.82;3.03;;;;;;;;;;5021555;28;20104;-57
2022/05/09 09:07:51;;;;;;;8.85;3.00;;;;;;;;;;5020591;28;20018;-58
2022/05/09 09:10:39;;;;;;;10.48;3.33;;;;;;;;;;5020436;28;20034;-60
2022/05/09 09:13:30;;;;;;;10.25;3.00;;;;;;;;;;5018465;28;20171;-56
2022/05/09 09:16:28;;;;;;;7.82;3.33;;;;;;;;;;5019971;28;20025;-57
2022/05/09 09:19:11;;;;;;;9.43;3.25;;;;;;;;;;5024311;28;20084;-58
2022/05/09 09:21:53;;;;;;;13.88;3.08;;;;;;;;;;5019060;28;20103;-58
2022/05/09 09:25:03;;;;;;;9.53;2.87;;;;;;;;;;5015318;28;20029;-58
2022/05/09 09:27:40;;;;;;;8.18;3.85;;;;;;;;;;5007035;28;20067;-58
2022/05/09 09:30:13;;;;;;;8.05;3.72;;;;;;;;;;5016351;28;20253;-58
2022/05/09 09:32:40;;;;;;;9.63;3.80;;;;;;;;;;5019277;28;20030;-58
2022/05/09 09:35:19;;;;;;;8.07;3.40;;;;;;;;;;5017920;28;20021;-58
2022/05/09 09:38:09;;;;;;;8.82;3.63;;;;;;;;;;5019582;28;20684;-58
2022/05/09 09:40:34;;;;;;;9.18;4.00;;;;;;;;;;5026032;28;20038;-56
2022/05/09 09:43:00;;;;;;;8.00;3.25;;;;;;;;;;5021310;28;20033;-58
2022/05/09 09:45:46;;;;;;;10.10;3.10;;;;;;;;;;5024650;28;20021;-57
2022/05/09 09:48:14;;;;;;;7.03;3.22;;;;;;;;;;5019071;28;20428;-58
2022/05/09 09:51:10;;;;;;;15.52;4.57;;;;;;;;;;5018215;28;20113;-58
2022/05/09 09:53:57;;;;;;;10.65;3.47;;;;;;;;;;5025645;28;20057;-58
2022/05/09 09:56:24;;;;;;;11.23;3.70;;;;;;;;;;5021594;28;20124;-58
2022/05/09 09:59:11;;;;;;;12.55;4.43;;;;;;;;;;5022190;28;20116;-58
2022/05/09 10:01:37;;;;;;;11.05;3.10;;;;;;;;;;5022143;28;20049;-58
2022/05/09 10:04:27;;;;;;;9.98;3.90;;;;;;;;;;5035086;28;20516;-58
2022/05/09 10:06:55;;;;;;;16.95;3.03;;;;;;;;;;5023718;28;20029;-58
2022/05/09 10:09:22;;;;;;;11.82;3.50;;;;;;;;;;5031776;28;20029;-58
2022/05/09 10:11:48;;;;;;;6.38;2.83;;;;;;;;;;5028248;28;20311;-58
2022/05/09 10:14:34;;;;;;;7.70;3.15;;;;;;;;;;5022668;28;20513;-58
2022/05/09 10:17:17;;;;;;;10.07;3.00;;;;;;;;;;5019573;28;20034;-57
2022/05/09 10:19:43;;;;;;;6.90;2.75;;;;;;;;;;5023242;28;20181;-56
2022/05/09 10:25:14;;;;;;;11.35;2.50;;;;;;;;;;5023374;28;20043;-57
2022/05/09 10:27:40;;;;;;;9.57;3.03;;;;;;;;;;5022505;28;20316;-56
2022/05/09 10:30:15;;;;;;;9.65;3.70;;;;;;;;;;5020632;28;20399;-56
2022/05/09 10:32:55;;;;;;;6.05;3.03;;;;;;;;;;5025007;28;20029;-56
2022/05/09 10:35:25;;;;;;;8.57;3.53;;;;;;;;;;5017630;28;20041;-57
2022/05/09 10:37:59;;;;;;;6.45;2.85;;;;;;;;;;5022125;28;20060;-57
2022/05/09 10:40:42;;;;;;;14.50;3.67;;;;;;;;;;5023951;28;20628;-57
2022/05/09 10:43:32;;;;;;;7.95;2.90;;;;;;;;;;5026175;28;20409;-57
2022/05/09 10:46:04;;;;;;;9.65;2.83;;;;;;;;;;5023087;28;20042;-58
2022/05/09 10:48:49;;;;;;;15.18;3.17;;;;;;;;;;5030622;28;20056;-58
2022/05/09 10:51:21;;;;;;;8.88;2.70;;;;;;;;;;5020784;28;20033;-57
2022/05/09 10:54:00;;;;;;;10.07;2.72;;;;;;;;;;5028150;28;20029;-56
2022/05/09 10:56:45;;;;;;;8.57;3.10;;;;;;;;;;5026032;28;20050;-56
2022/05/09 10:59:19;;;;;;;7.80;3.45;;;;;;;;;;5030781;28;20032;-57
2022/05/09 11:01:56;;;;;;;6.95;2.60;;;;;;;;;;5030784;28;20034;-57
2022/05/09 11:04:24;;;;;;;5.07;2.67;;;;;;;;;;5028268;28;20222;-56
2022/05/09 11:07:04;;;;;;;14.10;3.17;;;;;;;;;;5026033;28;20416;-57
2022/05/09 11:09:38;;;;;;;8.48;2.40;;;;;;;;;;5021988;28;20033;-58
2022/05/09 11:12:13;;;;;;;6.65;2.80;;;;;;;;;;5024418;28;20032;-56
2022/05/09 11:14:58;;;;;;;9.55;3.30;;;;;;;;;;5024491;28;20044;-57
2022/05/09 11:18:01;;;;;;;10.98;2.97;;;;;;;;;;5018744;28;20530;-57
2022/05/09 11:20:38;;;;;;;7.35;3.10;;;;;;;;;;5022612;28;20091;-58
2022/05/09 11:23:29;;;;;;;6.25;2.67;;;;;;;;;;5023739;28;20061;-57
2022/05/09 11:26:17;;;;;;;6.68;2.55;;;;;;;;;;5020591;28;20064;-58
2022/05/09 11:28:48;;;;;;;6.32;2.60;;;;;;;;;;5023607;28;20053;-58
2022/05/09 11:31:39;;;;;;;7.00;2.85;;;;;;;;;;5018767;28;20030;-58
2022/05/09 11:34:20;;;;;;;4.70;2.50;;;;;;;;;;5023931;28;20026;-57
2022/05/09 11:37:13;;;;;;;6.80;2.28;;;;;;;;;;5021155;28;20116;-57
2022/05/09 11:39:54;;;;;;;6.80;2.20;;;;;;;;;;5023011;28;20084;-58
2022/05/09 11:45:31;;;;;;;10.82;2.58;;;;;;;;;;5017782;28;20133;-57
2022/05/09 11:48:19;;;;;;;8.38;2.42;;;;;;;;;;5011951;28;20052;-57
2022/05/09 11:50:59;;;;;;;4.88;2.40;;;;;;;;;;5020543;28;20059;-57
2022/05/09 11:53:28;;;;;;;3.97;1.85;;;;;;;;;;5021832;28;20032;-57
2022/05/09 11:55:54;;;;;;;4.10;2.28;;;;;;;;;;5024246;28;20025;-57
2022/05/09 11:58:20;;;;;;;7.07;1.98;;;;;;;;;;5022638;28;20037;-56
2022/05/09 12:00:50;;;;;;;4.05;1.63;;;;;;;;;;5023845;28;20033;-56
2022/05/09 12:03:38;;;;;;;3.38;1.50;;;;;;;;;;5024754;28;20022;-56
2022/05/09 12:06:06;;;;;;;3.15;1.42;;;;;;;;;;5026370;28;20063;-57
2022/05/09 12:08:42;;;;;;;3.78;1.42;;;;;;;;;;5026966;28;20100;-57
2022/05/09 12:11:22;;;;;;;3.20;1.40;;;;;;;;;;5023257;28;20048;-56
2022/05/09 12:13:51;;;;;;;5.85;2.25;;;;;;;;;;5024231;28;20044;-55
2022/05/09 12:16:41;;;;;;;2.47;1.85;;;;;;;;;;5020754;28;20056;-57
2022/05/09 12:19:30;;;;;;;2.83;1.20;;;;;;;;;;5013547;28;20075;-57
2022/05/09 12:22:34;;;;;;;2.72;1.42;;;;;;;;;;5013261;28;20076;-57
2022/05/09 12:25:00;;;;;;;5.60;1.35;;;;;;;;;;5015721;28;20045;-57
2022/05/09 12:27:43;;;;;;;3.60;1.52;;;;;;;;;;5006573;28;20504;-56
2022/05/09 12:30:32;;;;;;;4.80;1.80;;;;;;;;;;5020467;28;20030;-56
2022/05/09 12:32:58;;;;;;;2.80;1.42;;;;;;;;;;5021331;28;20515;-56
2022/05/09 12:35:23;;;;;;;3.28;1.60;;;;;;;;;;5029812;28;20047;-56
2022/05/09 12:37:49;;;;;;;2.75;1.60;;;;;;;;;;5028028;28;20064;-55
2022/05/09 12:40:24;;;;;;;3.65;1.55;;;;;;;;;;5043420;28;20503;-57
2022/05/09 12:42:58;;;;;;;2.25;1.50;;;;;;;;;;5028225;28;20443;-56
2022/05/09 12:45:24;;;;;;;1.67;1.25;;;;;;;;;;5023328;28;20120;-57
2022/05/09 12:47:50;;;;;;;4.43;1.10;;;;;;;;;;5031091;28;20028;-55
2022/05/09 12:50:21;;;;;;;5.28;1.65;;;;;;;;;;5022611;28;20028;-56
2022/05/09 12:53:14;;;;;;;3.05;1.27;;;;;;;;;;5027346;28;20029;-57
2022/05/09 12:55:57;;;;;;;2.65;1.40;;;;;;;;;;5019323;28;20060;-57
2022/05/09 12:58:35;;;;;;;4.10;1.20;;;;;;;;;;5016181;28;20047;-57
2022/05/09 13:01:12;;;;;;;3.80;1.33;;;;;;;;;;5023241;28;20132;-57
2022/05/09 13:03:44;;;;;;;3.38;1.33;;;;;;;;;;5024475;28;20025;-62
2022/05/09 13:06:13;;;;;;;3.35;1.30;;;;;;;;;;5027342;28;20087;-57
2022/05/09 13:08:40;;;;;;;2.53;1.45;;;;;;;;;;5021047;28;20065;-56
2022/05/09 13:11:14;;;;;;;4.18;1.15;;;;;;;;;;5014170;28;20037;-56
2022/05/09 13:13:46;;;;;;;2.47;1.20;;;;;;;;;;5022191;28;20034;-56
2022/05/09 13:16:20;;;;;;;5.30;1.17;;;;;;;;;;5013313;28;20033;-56
2022/05/09 13:18:47;;;;;;;2.75;1.05;;;;;;;;;;5015959;28;20124;-57
2022/05/09 13:21:12;;;;;;;1.27;1.05;;;;;;;;;;5019554;28;20048;-56
2022/05/09 13:23:42;;;;;;;3.05;1.20;;;;;;;;;;5022388;28;20026;-57
2022/05/09 13:26:14;;;;;;;3.15;1.40;;;;;;;;;;5012422;28;20025;-57
2022/05/09 13:28:55;;;;;;;2.35;1.00;;;;;;;;;;5020139;28;20057;-58
2022/05/09 13:31:40;;;;;;;5.07;1.92;;;;;;;;;;5024568;28;20052;-57
2022/05/09 13:34:17;;;;;;;3.33;0.98;;;;;;;;;;5018005;28;20758;-58
2022/05/09 13:36:43;;;;;;;3.03;0.90;;;;;;;;;;5022606;28;20042;-57
2022/05/09 13:39:25;;;;;;;6.47;1.40;;;;;;;;;;5025243;28;20026;-58
2022/05/09 13:41:52;;;;;;;3.65;1.10;;;;;;;;;;5023807;28;20071;-57
2022/05/09 13:44:23;;;;;;;5.28;1.05;;;;;;;;;;5023636;28;20410;-57
2022/05/09 13:46:50;;;;;;;1.55;0.77;;;;;;;;;;5023871;28;20077;-57
2022/05/09 13:49:18;;;;;;;3.42;0.85;;;;;;;;;;5014035;28;20052;-57
2022/05/09 13:51:58;;;;;;;2.35;0.82;;;;;;;;;;5015043;28;20029;-58
2022/05/09 13:54:27;;;;;;;1.73;1.05;;;;;;;;;;5016076;28;20029;-58
2022/05/09 13:57:09;;;;;;;6.18;1.58;;;;;;;;;;5016680;28;20017;-58
2022/05/09 13:59:36;;;;;;;1.48;0.80;;;;;;;;;;5019680;28;20402;-58
2022/05/09 14:02:02;;;;;;;1.27;0.80;;;;;;;;;;5013652;28;20036;-57
2022/05/09 14:04:29;;;;;;;1.65;0.70;;;;;;;;;;5027501;28;20112;-57
2022/05/09 14:07:37;;;;;;;6.47;1.00;;;;;;;;;;5022831;28;20046;-56
2022/05/09 14:09:44;;;;;;;2.05;0.70;;;;;;;;;;5022835;28;20059;-58
2022/05/09 14:12:17;;;;;;;3.70;0.80;;;;;;;;;;5021182;28;20484;-57
2022/05/09 14:14:47;;;;;;;3.05;0.80;;;;;;;;;;5023056;28;20126;-57
2022/05/09 14:17:28;;;;;;;2.30;0.55;;;;;;;;;;5031730;28;20030;-58
2022/05/09 14:19:59;;;;;;;1.08;0.47;;;;;;;;;;5019971;28;20026;-58
2022/05/09 14:22:28;;;;;;;1.75;1.00;;;;;;;;;;5020333;28;20036;-58
2022/05/09 14:30:39;;;;;;;3.35;0.63;;;;;;;;;;5022209;28;20045;-56
2022/05/09 14:33:08;;;;;;;1.27;0.70;;;;;;;;;;5026184;28;20037;-56
2022/05/09 14:35:46;;;;;;;1.13;0.50;;;;;;;;;;5023034;28;20092;-57
2022/05/09 14:38:32;;;;;;;1.17;0.60;;;;;;;;;;5025718;28;20018;-58
2022/05/09 14:44:15;;;;;;;1.45;0.57;;;;;;;;;;5018910;28;20505;-57
2022/05/09 14:46:43;;;;;;;2.92;0.60;;;;;;;;;;5024361;28;20052;-56
2022/05/09 14:49:16;;;;;;;1.35;0.60;;;;;;;;;;5019980;28;20041;-57
2022/05/09 14:51:57;;;;;;;2.08;0.45;;;;;;;;;;5026123;28;20420;-58
2022/05/09 14:54:24;;;;;;;0.75;0.50;;;;;;;;;;5017207;28;20045;-56
2022/05/09 14:59:35;;;;;;;3.78;0.70;;;;;;;;;;5020866;28;20568;-56
2022/05/09 15:02:18;;;;;;;0.60;0.40;;;;;;;;;;5019245;28;20029;-56
2022/05/09 15:04:43;;;;;;;1.38;0.52;;;;;;;;;;5022430;28;20025;-56
2022/05/09 15:07:10;;;;;;;1.13;0.60;;;;;;;;;;5019169;28;20033;-55
2022/05/09 15:09:35;;;;;;;1.17;0.60;;;;;;;;;;5020782;28;20176;-56
2022/05/09 15:12:01;;;;;;;1.60;0.70;;;;;;;;;;5023356;28;20488;-56
2022/05/09 15:14:28;;;;;;;2.05;0.88;;;;;;;;;;5020475;28;20045;-56
2022/05/09 15:16:54;;;;;;;1.92;0.70;;;;;;;;;;5029222;28;20283;-56
2022/05/09 15:19:25;;;;;;;1.15;0.43;;;;;;;;;;5025445;28;20493;-56
2022/05/09 15:21:52;;;;;;;0.47;0.30;;;;;;;;;;5018169;28;20072;-55
2022/05/09 15:24:17;;;;;;;1.98;0.60;;;;;;;;;;5020198;28;20097;-58
2022/05/09 15:26:45;;;;;;;0.88;0.43;;;;;;;;;;5018898;28;20057;-56
2022/05/09 15:29:11;;;;;;;1.55;0.40;;;;;;;;;;5020978;28;20038;-56